createdAt,value
2023-04-23T00:01:08.429Z,10.73
2023-04-23T00:03:34.832Z,10.71
2023-04-23T00:06:01.311Z,10.80
2023-04-23T00:08:27.593Z,10.83
2023-04-23T00:10:53.858Z,10.77
2023-04-23T00:13:20.106Z,10.76
2023-04-23T00:15:46.426Z,10.77
2023-04-23T00:18:12.691Z,10.80
2023-04-23T00:20:38.961Z,10.83
2023-04-23T00:23:05.225Z,10.86
2023-04-23T00:25:31.504Z,10.87
2023-04-23T00:27:57.744Z,10.91
2023-04-23T00:30:24.029Z,10.94
2023-04-23T00:32:50.270Z,10.99
2023-04-23T00:35:16.547Z,11.01
2023-04-23T00:37:42.821Z,11.00
2023-04-23T00:40:09.149Z,11.03
2023-04-23T00:42:35.426Z,10.97
2023-04-23T00:45:01.682Z,10.97
2023-04-23T00:47:27.955Z,10.91
2023-04-23T00:49:54.230Z,10.86
2023-04-23T00:52:20.491Z,10.85
2023-04-23T00:54:46.735Z,10.85
2023-04-23T00:57:13.025Z,10.72
2023-04-23T00:59:39.312Z,10.66
2023-04-23T01:02:05.717Z,10.71
2023-04-23T01:04:32.058Z,10.74
2023-04-23T01:06:58.311Z,10.61
2023-04-23T01:09:24.600Z,10.65
2023-04-23T01:11:50.871Z,10.56
2023-04-23T01:14:17.131Z,10.45
2023-04-23T01:16:43.430Z,10.48
2023-04-23T01:19:09.721Z,10.51
2023-04-23T01:21:36.031Z,10.51
2023-04-23T01:24:02.286Z,10.53
2023-04-23T01:26:28.616Z,10.52
2023-04-23T01:28:54.900Z,10.48
2023-04-23T01:31:21.234Z,10.46
2023-04-23T01:33:47.515Z,10.54
2023-04-23T01:36:13.763Z,10.53
2023-04-23T01:38:40.067Z,10.61
2023-04-23T01:41:06.322Z,10.63
2023-04-23T01:43:32.617Z,10.61
2023-04-23T01:45:58.935Z,10.63
2023-04-23T01:48:25.196Z,10.65
2023-04-23T01:50:51.469Z,10.72
2023-04-23T01:53:17.769Z,10.77
2023-04-23T01:55:44.059Z,10.81
2023-04-23T01:58:10.308Z,10.82
2023-04-23T02:00:36.570Z,10.86
2023-04-23T02:03:02.992Z,10.90
2023-04-23T02:05:29.286Z,10.88
2023-04-23T02:07:55.537Z,10.88
2023-04-23T02:10:21.797Z,10.85
2023-04-23T02:12:48.055Z,10.86
2023-04-23T02:15:14.317Z,10.88
2023-04-23T02:17:40.646Z,10.91
2023-04-23T02:20:06.939Z,10.88
2023-04-23T02:22:33.202Z,10.89
2023-04-23T02:24:59.446Z,10.76
2023-04-23T02:27:25.692Z,10.75
2023-04-23T02:29:51.968Z,10.77
2023-04-23T02:32:18.258Z,10.78
2023-04-23T02:34:44.526Z,10.79
2023-04-23T02:37:10.785Z,10.74
2023-04-23T02:39:37.096Z,10.63
2023-04-23T02:42:03.357Z,10.73
2023-04-23T02:44:29.620Z,10.77
2023-04-23T02:46:55.945Z,10.81
2023-04-23T02:49:22.227Z,10.83
2023-04-23T02:51:48.515Z,10.84
2023-04-23T02:54:14.871Z,10.85
2023-04-23T02:56:41.142Z,10.87
2023-04-23T02:59:07.378Z,10.86
2023-04-23T03:01:33.635Z,10.90
2023-04-23T03:04:00.095Z,10.89
2023-04-23T03:06:27.529Z,10.88
2023-04-23T03:08:53.777Z,10.88
2023-04-23T03:11:20.051Z,10.89
2023-04-23T03:13:46.317Z,10.89
2023-04-23T03:16:12.590Z,10.90
2023-04-23T03:18:38.901Z,10.89
2023-04-23T03:21:05.149Z,10.90
2023-04-23T03:23:31.404Z,10.91
2023-04-23T03:25:57.641Z,10.91
2023-04-23T03:28:23.884Z,10.91
2023-04-23T03:30:50.158Z,10.85
2023-04-23T03:33:16.478Z,10.80
2023-04-23T03:35:42.864Z,10.87
2023-04-23T03:38:09.111Z,10.90
2023-04-23T03:40:35.424Z,10.90
2023-04-23T03:43:01.668Z,10.92
2023-04-23T03:45:27.921Z,10.90
2023-04-23T03:47:54.196Z,10.92
2023-04-23T03:50:20.496Z,10.93
2023-04-23T03:52:46.737Z,10.94
2023-04-23T03:55:13.020Z,10.93
2023-04-23T03:57:39.286Z,10.92
2023-04-23T04:00:05.536Z,10.90
2023-04-23T04:02:31.888Z,10.89
2023-04-23T04:04:58.305Z,10.87
2023-04-23T04:07:24.666Z,10.86
2023-04-23T04:09:50.932Z,10.85
2023-04-23T04:12:17.192Z,10.87
2023-04-23T04:14:43.692Z,10.88
2023-04-23T04:17:10.035Z,10.88
2023-04-23T04:19:36.308Z,10.85
2023-04-23T04:22:02.615Z,10.85
2023-04-23T04:24:28.881Z,10.85
2023-04-23T04:26:55.120Z,10.81
2023-04-23T04:29:22.267Z,10.76
2023-04-23T04:31:48.676Z,10.73
2023-04-23T04:34:15.004Z,10.76
2023-04-23T04:36:41.297Z,10.60
2023-04-23T04:39:07.556Z,10.62
2023-04-23T04:41:33.819Z,10.59
2023-04-23T04:44:00.083Z,10.61
2023-04-23T04:46:26.569Z,10.64
2023-04-23T04:48:52.881Z,10.64
2023-04-23T04:51:19.208Z,10.66
2023-04-23T04:53:45.474Z,10.67
2023-04-23T04:56:11.741Z,10.65
2023-04-23T04:58:38.024Z,10.63
2023-04-23T05:01:04.358Z,10.63
2023-04-23T05:03:30.944Z,10.63
2023-04-23T05:05:57.362Z,10.62
2023-04-23T05:08:23.607Z,10.65
2023-04-23T05:10:49.909Z,10.64
2023-04-23T05:13:16.172Z,10.64
2023-04-23T05:15:42.428Z,10.67
2023-04-23T05:18:08.715Z,10.68
2023-04-23T05:20:35.278Z,10.70
2023-04-23T05:23:01.540Z,10.69
2023-04-23T05:25:27.808Z,10.68
2023-04-23T05:27:54.054Z,10.73
2023-04-23T05:30:20.318Z,10.74
2023-04-23T05:32:46.628Z,10.73
2023-04-23T05:35:12.900Z,10.75
2023-04-23T05:37:39.168Z,10.77
2023-04-23T05:40:05.409Z,10.80
2023-04-23T05:42:31.684Z,10.79
2023-04-23T05:44:57.922Z,10.80
2023-04-23T05:47:24.211Z,10.81
2023-04-23T05:49:50.509Z,10.83
2023-04-23T05:52:16.786Z,10.86
2023-04-23T05:54:43.340Z,10.86
2023-04-23T05:57:09.888Z,10.90
2023-04-23T05:59:36.160Z,10.93
2023-04-23T06:02:02.465Z,10.94
2023-04-23T06:04:28.914Z,10.97
2023-04-23T06:06:55.353Z,10.98
2023-04-23T06:09:21.637Z,10.99
2023-04-23T06:11:47.910Z,11.02
2023-04-23T06:14:14.193Z,11.02
2023-04-23T06:16:40.442Z,11.05
2023-04-23T06:19:06.720Z,10.98
2023-04-23T06:21:33.001Z,11.01
2023-04-23T06:23:59.282Z,11.07
2023-04-23T06:26:25.551Z,11.09
2023-04-23T06:28:51.816Z,11.10
2023-04-23T06:31:18.092Z,11.17
2023-04-23T06:33:44.355Z,11.18
2023-04-23T06:36:10.645Z,11.22
2023-04-23T06:38:36.891Z,11.25
2023-04-23T06:41:03.153Z,11.28
2023-04-23T06:43:29.452Z,11.29
2023-04-23T06:45:55.708Z,11.35
2023-04-23T06:48:22.043Z,11.42
2023-04-23T06:50:48.307Z,11.46
2023-04-23T06:53:14.574Z,11.51
2023-04-23T06:55:40.842Z,11.52
2023-04-23T06:58:07.156Z,11.57
2023-04-23T07:00:33.479Z,11.65
2023-04-23T07:02:59.939Z,11.58
2023-04-23T07:05:26.285Z,11.50
2023-04-23T07:07:52.560Z,11.42
2023-04-23T07:10:18.805Z,11.42
2023-04-23T07:12:45.073Z,11.43
2023-04-23T07:15:11.343Z,11.45
2023-04-23T07:17:37.650Z,11.46
2023-04-23T07:20:04.092Z,11.50
2023-04-23T07:22:30.550Z,11.47
2023-04-23T07:24:57.026Z,11.50
2023-04-23T07:27:23.351Z,11.47
2023-04-23T07:29:49.689Z,11.47
2023-04-23T07:32:15.962Z,11.49
2023-04-23T07:34:42.827Z,11.46
2023-04-23T07:37:09.854Z,11.46
2023-04-23T07:39:36.095Z,11.46
2023-04-23T07:42:02.359Z,11.48
2023-04-23T07:44:28.633Z,11.48
2023-04-23T07:46:54.916Z,11.51
2023-04-23T07:49:21.197Z,11.55
2023-04-23T07:51:47.537Z,11.58
2023-04-23T07:54:13.833Z,11.55
2023-04-23T07:56:42.057Z,11.57
2023-04-23T07:59:09.694Z,11.64
2023-04-23T08:01:35.985Z,11.72
2023-04-23T08:04:02.499Z,11.77
2023-04-23T08:06:29.046Z,11.82
2023-04-23T08:08:55.341Z,11.86
2023-04-23T08:11:22.070Z,11.90
2023-04-23T08:13:48.331Z,11.95
2023-04-23T08:16:14.666Z,12.01
2023-04-23T08:18:41.967Z,12.00
2023-04-23T08:21:09.213Z,12.04
2023-04-23T08:23:35.473Z,12.09
2023-04-23T08:26:01.729Z,12.11
2023-04-23T08:28:28.069Z,12.17
2023-04-23T08:30:54.328Z,12.24
2023-04-23T08:33:20.593Z,12.29
2023-04-23T08:35:46.872Z,12.29
2023-04-23T08:38:13.201Z,12.34
2023-04-23T08:40:39.473Z,12.37
2023-04-23T08:43:05.808Z,12.42
2023-04-23T08:45:32.084Z,12.45
2023-04-23T08:48:00.267Z,12.48
2023-04-23T08:50:28.141Z,12.53
2023-04-23T08:52:54.418Z,12.52
2023-04-23T08:55:20.779Z,12.53
2023-04-23T08:57:47.059Z,12.58
2023-04-23T09:00:13.336Z,12.60
2023-04-23T09:02:40.110Z,12.59
2023-04-23T09:05:06.678Z,12.63
2023-04-23T09:07:32.957Z,12.65
2023-04-23T09:09:59.236Z,12.70
2023-04-23T09:12:25.495Z,12.67
2023-04-23T09:14:51.839Z,12.72
2023-04-23T09:17:18.228Z,12.72
2023-04-23T09:19:44.648Z,12.75
2023-04-23T09:22:10.989Z,12.75
2023-04-23T09:24:37.273Z,12.80
2023-04-23T09:27:03.530Z,12.86
2023-04-23T09:29:29.798Z,12.92
2023-04-23T09:31:56.131Z,12.96
2023-04-23T09:34:22.482Z,12.98
2023-04-23T09:36:48.790Z,13.03
2023-04-23T09:39:15.095Z,13.04
2023-04-23T09:41:41.381Z,13.01
2023-04-23T09:44:07.635Z,13.00
2023-04-23T09:46:33.948Z,13.08
2023-04-23T09:49:00.234Z,13.08
2023-04-23T09:51:26.509Z,13.08
2023-04-23T09:53:52.776Z,13.20
2023-04-23T09:56:19.076Z,13.19
2023-04-23T09:58:45.374Z,13.23
2023-04-23T10:01:11.750Z,13.37
2023-04-23T10:03:40.524Z,13.35
2023-04-23T10:06:17.303Z,13.41
2023-04-23T10:08:51.975Z,13.53
2023-04-23T10:11:20.923Z,13.52
2023-04-23T10:13:47.558Z,13.56
2023-04-23T10:16:22.266Z,13.61
2023-04-23T10:18:50.547Z,13.72
2023-04-23T10:21:16.823Z,13.86
2023-04-23T10:23:43.097Z,13.96
2023-04-23T10:26:09.816Z,14.04
2023-04-23T10:28:36.204Z,14.05
2023-04-23T10:31:02.561Z,14.12
2023-04-23T10:33:31.736Z,14.23
2023-04-23T10:35:59.852Z,14.22
2023-04-23T10:38:26.114Z,14.28
2023-04-23T10:40:52.366Z,14.34
2023-04-23T10:43:18.646Z,14.39
2023-04-23T10:45:44.975Z,14.53
2023-04-23T10:48:11.245Z,14.61
2023-04-23T10:50:38.694Z,14.65
2023-04-23T10:53:10.185Z,14.56
2023-04-23T10:55:36.456Z,14.54
2023-04-23T10:58:03.285Z,14.56
2023-04-23T11:00:29.746Z,14.56
2023-04-23T11:02:56.218Z,14.65
2023-04-23T11:05:22.676Z,14.65
2023-04-23T11:07:49.054Z,14.74
2023-04-23T11:10:15.485Z,14.80
2023-04-23T11:12:41.848Z,14.78
2023-04-23T11:15:08.092Z,14.74
2023-04-23T11:17:34.516Z,14.65
2023-04-23T11:20:00.791Z,14.61
2023-04-23T11:22:27.084Z,14.50
2023-04-23T11:24:53.336Z,14.46
2023-04-23T11:27:19.623Z,14.45
2023-04-23T11:29:45.973Z,14.47
2023-04-23T11:32:12.250Z,14.43
2023-04-23T11:34:38.517Z,14.38
2023-04-23T11:37:04.860Z,14.46
2023-04-23T11:39:34.055Z,14.42
2023-04-23T11:42:00.317Z,14.34
2023-04-23T11:44:26.553Z,14.43
2023-04-23T11:46:52.874Z,14.40
2023-04-23T11:49:19.231Z,14.40
2023-04-23T11:51:45.726Z,14.54
2023-04-23T11:54:12.201Z,14.55
2023-04-23T11:56:38.486Z,14.39
2023-04-23T11:59:04.763Z,14.36
2023-04-23T12:01:31.039Z,14.42
2023-04-23T12:03:57.586Z,14.42
2023-04-23T12:06:24.020Z,14.44
2023-04-23T12:08:50.300Z,14.71
2023-04-23T12:11:16.580Z,14.55
2023-04-23T12:13:42.850Z,14.70
2023-04-23T12:16:10.502Z,14.77
2023-04-23T12:18:37.402Z,14.80
2023-04-23T12:21:03.660Z,14.79
2023-04-23T12:23:30.170Z,14.78
2023-04-23T12:25:56.590Z,14.85
2023-04-23T12:28:22.850Z,14.88
2023-04-23T12:30:49.109Z,14.98
2023-04-23T12:33:15.370Z,15.04
2023-04-23T12:35:41.630Z,15.10
2023-04-23T12:38:07.957Z,15.17
2023-04-23T12:40:34.251Z,15.25
2023-04-23T12:43:00.535Z,15.29
2023-04-23T12:45:26.877Z,15.12
2023-04-23T12:47:53.261Z,15.07
2023-04-23T12:50:19.533Z,15.20
2023-04-23T12:52:45.843Z,15.13
2023-04-23T12:55:12.121Z,15.17
2023-04-23T12:57:38.380Z,15.09
2023-04-23T13:00:04.659Z,15.11
2023-04-23T13:02:31.077Z,15.13
2023-04-23T13:04:57.647Z,15.23
2023-04-23T13:07:24.128Z,15.19
2023-04-23T13:09:50.493Z,15.27
2023-04-23T13:12:17.119Z,15.38
2023-04-23T13:14:43.427Z,15.31
2023-04-23T13:17:09.733Z,15.51
2023-04-23T13:19:36.015Z,15.50
2023-04-23T13:22:02.279Z,15.42
2023-04-23T13:24:28.549Z,15.34
2023-04-23T13:26:54.822Z,15.37
2023-04-23T13:29:21.090Z,15.31
2023-04-23T13:31:47.410Z,15.31
2023-04-23T13:34:13.687Z,15.25
2023-04-23T13:36:39.947Z,15.34
2023-04-23T13:39:06.191Z,15.34
2023-04-23T13:41:32.467Z,15.39
2023-04-23T13:43:58.773Z,15.32
2023-04-23T13:46:25.146Z,15.17
2023-04-23T13:48:51.460Z,15.21
2023-04-23T13:51:33.181Z,15.25
2023-04-23T13:54:00.825Z,15.33
2023-04-23T13:56:27.132Z,15.31
2023-04-23T13:58:54.124Z,15.26
2023-04-23T14:01:22.629Z,15.26
2023-04-23T14:03:49.076Z,15.16
2023-04-23T14:06:15.475Z,15.11
2023-04-23T14:08:41.888Z,14.94
2023-04-23T14:11:08.141Z,14.94
2023-04-23T14:13:34.593Z,15.02
2023-04-23T14:16:03.354Z,14.99
2023-04-23T14:18:30.047Z,15.01
2023-04-23T14:20:56.321Z,14.91
2023-04-23T14:23:22.663Z,15.09
2023-04-23T14:25:50.330Z,15.16
2023-04-23T14:28:16.670Z,15.11
2023-04-23T14:30:42.944Z,15.20
2023-04-23T14:33:09.265Z,15.28
2023-04-23T14:35:43.052Z,15.38
2023-04-23T14:38:09.878Z,15.38
2023-04-23T14:40:36.168Z,15.47
2023-04-23T14:43:14.507Z,15.48
2023-04-23T14:45:41.585Z,15.54
2023-04-23T14:48:07.883Z,15.61
2023-04-23T14:50:34.228Z,15.66
2023-04-23T14:53:00.534Z,15.73
2023-04-23T14:55:26.789Z,15.61
2023-04-23T14:57:53.039Z,15.74
2023-04-23T15:00:19.311Z,15.96
2023-04-23T15:02:45.781Z,16.15
2023-04-23T15:05:12.146Z,16.33
2023-04-23T15:07:38.409Z,16.49
2023-04-23T15:10:04.986Z,16.48
2023-04-23T15:12:31.307Z,16.54
2023-04-23T15:14:57.697Z,16.54
2023-04-23T15:17:24.092Z,16.43
2023-04-23T15:19:50.356Z,16.33
2023-04-23T15:22:16.632Z,16.23
2023-04-23T15:24:42.889Z,16.00
2023-04-23T15:27:09.144Z,15.76
2023-04-23T15:29:35.400Z,15.32
2023-04-23T15:32:01.674Z,15.24
2023-04-23T15:34:27.991Z,15.04
2023-04-23T15:36:54.258Z,14.67
2023-04-23T15:39:20.543Z,14.48
2023-04-23T15:41:46.859Z,14.45
2023-04-23T15:44:13.137Z,14.02
2023-04-23T15:46:39.407Z,13.67
2023-04-23T15:49:05.757Z,13.43
2023-04-23T15:51:32.072Z,12.94
2023-04-23T15:53:58.353Z,12.68
2023-04-23T15:56:24.630Z,12.58
2023-04-23T15:58:50.891Z,12.33
2023-04-23T16:01:17.206Z,11.98
2023-04-23T16:03:50.576Z,11.91
2023-04-23T16:06:28.318Z,11.98
2023-04-23T16:08:54.593Z,12.08
2023-04-23T16:11:20.853Z,11.89
2023-04-23T16:13:47.133Z,11.72
2023-04-23T16:16:13.390Z,11.69
2023-04-23T16:18:39.674Z,11.72
2023-04-23T16:21:05.991Z,11.91
2023-04-23T16:23:32.399Z,11.96
2023-04-23T16:25:58.663Z,12.00
2023-04-23T16:28:24.958Z,11.88
2023-04-23T16:30:51.260Z,11.82
2023-04-23T16:33:17.725Z,11.87
2023-04-23T16:35:43.984Z,11.84
2023-04-23T16:38:10.282Z,11.87
2023-04-23T16:40:36.552Z,11.94
2023-04-23T16:43:02.842Z,11.99
2023-04-23T16:45:29.120Z,11.81
2023-04-23T16:47:55.417Z,11.82
2023-04-23T16:50:21.698Z,11.71
2023-04-23T16:52:47.987Z,11.74
2023-04-23T16:55:14.279Z,11.81
2023-04-23T16:57:40.554Z,11.78
2023-04-23T17:00:06.821Z,11.83
2023-04-23T17:02:33.229Z,11.82
2023-04-23T17:04:59.565Z,11.78
2023-04-23T17:07:25.813Z,11.83
2023-04-23T17:09:52.087Z,11.78
2023-04-23T17:12:18.380Z,11.65
2023-04-23T17:14:44.695Z,11.69
2023-04-23T17:17:11.005Z,11.72
2023-04-23T17:19:37.311Z,11.58
2023-04-23T17:22:03.602Z,11.56
2023-04-23T17:24:29.977Z,11.51
2023-04-23T17:26:56.282Z,11.50
2023-04-23T17:29:22.541Z,11.46
2023-04-23T17:31:48.846Z,11.55
2023-04-23T17:34:15.130Z,11.59
2023-04-23T17:36:41.435Z,11.58
2023-04-23T17:39:07.717Z,11.55
2023-04-23T17:41:33.964Z,11.56
2023-04-23T17:44:00.223Z,11.46
2023-04-23T17:46:26.612Z,11.51
2023-04-23T17:48:52.901Z,11.34
2023-04-23T17:51:19.208Z,11.28
2023-04-23T17:53:45.478Z,11.16
2023-04-23T17:56:11.743Z,11.06
2023-04-23T17:58:38.459Z,11.08
2023-04-23T18:01:04.946Z,11.08
2023-04-23T18:03:31.443Z,11.01
2023-04-23T18:05:57.847Z,10.97
2023-04-23T18:08:24.264Z,10.95
2023-04-23T18:10:50.750Z,10.86
2023-04-23T18:13:17.016Z,10.91
2023-04-23T18:15:43.274Z,10.94
2023-04-23T18:18:09.628Z,10.94
2023-04-23T18:20:36.005Z,10.97
2023-04-23T18:23:02.299Z,10.93
2023-04-23T18:25:28.672Z,10.96
2023-04-23T18:27:54.948Z,10.93
2023-04-23T18:30:21.204Z,10.87
2023-04-23T18:32:47.503Z,10.90
2023-04-23T18:35:13.801Z,11.00
2023-04-23T18:37:40.056Z,10.99
2023-04-23T18:40:06.354Z,11.04
2023-04-23T18:42:32.670Z,10.98
2023-04-23T18:44:58.930Z,11.10
2023-04-23T18:47:25.268Z,11.15
2023-04-23T18:49:51.662Z,11.13
2023-04-23T18:52:18.315Z,11.12
2023-04-23T18:54:44.687Z,11.07
2023-04-23T18:57:11.351Z,11.14
2023-04-23T18:59:37.955Z,11.16
2023-04-23T19:02:04.644Z,11.15
2023-04-23T19:04:31.379Z,11.05
2023-04-23T19:06:57.892Z,11.12
2023-04-23T19:09:24.162Z,11.15
2023-04-23T19:11:50.398Z,11.22
2023-04-23T19:14:16.808Z,11.22
2023-04-23T19:16:43.178Z,11.20
2023-04-23T19:19:09.484Z,11.17
2023-04-23T19:21:35.742Z,11.17
2023-04-23T19:24:02.001Z,11.20
2023-04-23T19:26:28.259Z,11.10
2023-04-23T19:28:54.584Z,11.05
2023-04-23T19:31:20.903Z,11.01
2023-04-23T19:33:47.225Z,11.04
2023-04-23T19:36:13.484Z,10.97
2023-04-23T19:38:39.779Z,11.04
2023-04-23T19:41:06.247Z,10.88
2023-04-23T19:43:32.584Z,10.90
2023-04-23T19:45:59.847Z,10.93
2023-04-23T19:48:26.388Z,10.92
2023-04-23T19:50:52.730Z,10.89
2023-04-23T19:53:18.987Z,10.87
2023-04-23T19:55:45.250Z,10.84
2023-04-23T19:58:11.524Z,10.65
2023-04-23T20:00:37.873Z,10.62
2023-04-23T20:03:04.302Z,10.60
2023-04-23T20:05:30.640Z,10.57
2023-04-23T20:07:56.915Z,10.55
2023-04-23T20:10:23.209Z,10.55
2023-04-23T20:12:49.475Z,10.53
2023-04-23T20:18:06.495Z,10.59
2023-04-23T20:20:32.811Z,10.68
2023-04-23T20:22:59.229Z,10.68
2023-04-23T20:25:26.048Z,10.68
2023-04-23T20:27:52.394Z,10.75
2023-04-23T20:30:18.846Z,10.74
2023-04-23T20:32:45.195Z,10.78
2023-04-23T20:35:11.615Z,10.76
2023-04-23T20:37:37.896Z,10.69
2023-04-23T20:40:04.270Z,10.74
2023-04-23T20:42:30.554Z,10.79
2023-04-23T20:44:56.853Z,10.84
2023-04-23T20:47:23.138Z,10.84
2023-04-23T20:49:49.457Z,10.87
2023-04-23T20:52:15.725Z,10.76
2023-04-23T20:54:42.019Z,10.84
2023-04-23T20:57:08.367Z,10.77
2023-04-23T20:59:34.624Z,10.86
2023-04-23T21:02:00.947Z,10.64
2023-04-23T21:04:27.319Z,10.67
2023-04-23T21:06:53.727Z,10.61
2023-04-23T21:09:20.051Z,10.70
2023-04-23T21:11:46.333Z,10.68
2023-04-23T21:14:12.611Z,10.53
2023-04-23T21:16:38.925Z,10.61
2023-04-23T21:19:05.317Z,10.71
2023-04-23T21:21:31.622Z,10.55
2023-04-23T21:23:57.899Z,10.54
2023-04-23T21:26:24.213Z,10.63
2023-04-23T21:28:50.463Z,10.75
2023-04-23T21:31:16.796Z,10.84
2023-04-23T21:33:43.121Z,10.89
2023-04-23T21:36:09.364Z,10.87
2023-04-23T21:38:35.619Z,10.82
2023-04-23T21:41:01.891Z,10.81
2023-04-23T21:43:28.136Z,10.55
2023-04-23T21:45:54.415Z,10.68
2023-04-23T21:48:20.676Z,10.63
2023-04-23T21:50:46.956Z,10.61
2023-04-23T21:53:13.223Z,10.47
2023-04-23T21:55:39.466Z,10.20
2023-04-23T21:58:16.481Z,9.98
2023-04-23T22:00:43.297Z,10.04
2023-04-23T22:03:09.664Z,9.96
2023-04-23T22:05:36.402Z,9.90
2023-04-23T22:08:02.708Z,9.82
2023-04-23T22:10:28.982Z,9.69
2023-04-23T22:12:55.268Z,9.77
2023-04-23T22:15:21.547Z,9.68
2023-04-23T22:17:47.890Z,9.59
2023-04-23T22:20:14.156Z,9.57
2023-04-23T22:22:40.429Z,9.69
2023-04-23T22:25:06.696Z,9.72
2023-04-23T22:27:34.778Z,9.84
2023-04-23T22:30:01.165Z,9.93
2023-04-23T22:32:27.469Z,10.02
2023-04-23T22:34:53.759Z,10.04
2023-04-23T22:37:20.028Z,10.00
2023-04-23T22:39:46.285Z,9.82
2023-04-23T22:42:12.571Z,9.87
2023-04-23T22:44:38.832Z,9.64
2023-04-23T22:47:05.067Z,9.48
2023-04-23T22:49:31.401Z,9.59
2023-04-23T22:51:57.686Z,9.66
2023-04-23T22:54:23.934Z,9.65
2023-04-23T22:56:50.182Z,9.69
2023-04-23T22:59:16.561Z,9.72
2023-04-23T23:01:42.821Z,9.76
2023-04-23T23:04:09.127Z,9.80
2023-04-23T23:06:35.444Z,9.82
2023-04-23T23:09:01.703Z,9.82
2023-04-23T23:11:27.963Z,9.70
2023-04-23T23:13:54.239Z,9.69
2023-04-23T23:16:20.613Z,9.70
2023-04-23T23:18:46.870Z,9.74
2023-04-23T23:21:13.158Z,9.75
2023-04-23T23:23:39.391Z,9.74
2023-04-23T23:26:05.640Z,9.73
2023-04-23T23:28:31.871Z,9.74
2023-04-23T23:30:58.145Z,9.75
2023-04-23T23:33:24.386Z,9.66
2023-04-23T23:35:50.640Z,9.49
2023-04-23T23:38:16.909Z,9.46
2023-04-23T23:40:43.182Z,9.45
2023-04-23T23:43:09.442Z,9.48
2023-04-23T23:45:35.697Z,9.50
2023-04-23T23:48:02.108Z,9.54
2023-04-23T23:50:28.385Z,9.58
2023-04-23T23:52:54.652Z,9.59
2023-04-23T23:55:20.929Z,9.59
2023-04-23T23:57:47.199Z,9.47
